createdAt,value
2022-09-11T00:01:37.163Z,72.80
2022-09-11T00:04:07.074Z,72.90
2022-09-11T00:06:35.180Z,72.80
2022-09-11T00:09:05.322Z,72.80
2022-09-11T00:11:40.400Z,72.80
2022-09-11T00:14:10.314Z,72.90
2022-09-11T00:16:41.357Z,72.90
2022-09-11T00:19:13.471Z,72.90
2022-09-11T00:21:41.630Z,73.00
2022-09-11T00:24:10.361Z,73.00
2022-09-11T00:26:39.214Z,73.00
2022-09-11T00:29:08.084Z,73.00
2022-09-11T00:31:36.358Z,73.10
2022-09-11T00:34:04.554Z,73.20
2022-09-11T00:36:35.793Z,73.30
2022-09-11T00:39:04.161Z,73.30
2022-09-11T00:41:36.380Z,73.40
2022-09-11T00:44:07.232Z,73.50
2022-09-11T00:46:42.535Z,73.50
2022-09-11T00:49:17.871Z,73.40
2022-09-11T00:51:50.554Z,73.50
2022-09-11T00:54:21.669Z,73.60
2022-09-11T00:56:51.107Z,73.60
2022-09-11T00:59:21.482Z,73.70
2022-09-11T01:01:49.632Z,73.70
2022-09-11T01:04:18.096Z,73.80
2022-09-11T01:06:49.305Z,73.70
2022-09-11T01:09:17.561Z,73.80
2022-09-11T01:11:55.199Z,73.80
2022-09-11T01:14:39.911Z,73.80
2022-09-11T01:17:20.482Z,73.80
2022-09-11T01:20:20.452Z,73.90
2022-09-11T01:23:31.269Z,74.00
2022-09-11T01:26:32.592Z,74.00
2022-09-11T01:29:07.658Z,74.20
2022-09-11T01:31:42.189Z,74.10
2022-09-11T01:34:17.340Z,74.20
2022-09-11T01:36:53.735Z,74.10
2022-09-11T01:39:24.605Z,74.10
2022-09-11T01:42:00.247Z,74.10
2022-09-11T01:44:34.205Z,74.20
2022-09-11T01:47:05.663Z,74.20
2022-09-11T01:49:37.407Z,74.30
2022-09-11T01:52:12.898Z,74.30
2022-09-11T01:54:46.332Z,74.50
2022-09-11T01:57:22.928Z,74.50
2022-09-11T01:59:58.533Z,74.40
2022-09-11T02:02:32.164Z,74.50
2022-09-11T02:05:05.309Z,74.50
2022-09-11T02:07:39.721Z,74.50
2022-09-11T02:10:12.203Z,74.50
2022-09-11T02:12:46.372Z,74.50
2022-09-11T02:15:18.234Z,74.50
2022-09-11T02:17:55.120Z,74.50
2022-09-11T02:20:23.262Z,74.60
2022-09-11T02:22:51.575Z,74.60
2022-09-11T02:25:20.240Z,74.70
2022-09-11T02:27:48.436Z,74.90
2022-09-11T02:30:18.100Z,74.90
2022-09-11T02:32:46.205Z,74.90
2022-09-11T02:35:16.303Z,75.00
2022-09-11T02:37:53.612Z,75.00
2022-09-11T02:40:38.871Z,75.00
2022-09-11T02:43:31.027Z,74.90
2022-09-11T02:46:18.047Z,74.90
2022-09-11T02:48:57.325Z,75.00
2022-09-11T02:51:30.053Z,75.00
2022-09-11T02:54:03.089Z,74.90
2022-09-11T02:56:40.279Z,74.90
2022-09-11T02:59:13.224Z,75.00
2022-09-11T03:01:50.120Z,75.00
2022-09-11T03:04:18.384Z,74.90
2022-09-11T03:06:50.014Z,74.90
2022-09-11T03:09:20.237Z,74.80
2022-09-11T03:11:50.468Z,74.80
2022-09-11T03:14:18.799Z,74.80
2022-09-11T03:16:52.886Z,74.90
2022-09-11T03:19:22.576Z,75.00
2022-09-11T03:21:57.033Z,75.20
2022-09-11T03:24:29.555Z,75.30
2022-09-11T03:27:00.161Z,75.30
2022-09-11T03:29:31.743Z,75.20
2022-09-11T03:32:08.756Z,75.20
2022-09-11T03:34:44.004Z,75.30
2022-09-11T03:37:14.389Z,75.60
2022-09-11T03:39:47.442Z,75.60
2022-09-11T03:42:18.989Z,75.70
2022-09-11T03:44:49.823Z,75.80
2022-09-11T03:47:33.183Z,76.10
2022-09-11T03:50:09.925Z,76.10
2022-09-11T03:52:40.707Z,76.10
2022-09-11T03:55:14.629Z,76.10
2022-09-11T03:57:45.506Z,76.10
2022-09-11T04:00:14.524Z,76.20
2022-09-11T04:02:46.334Z,76.20
2022-09-11T04:05:16.666Z,76.30
2022-09-11T04:07:46.108Z,76.30
2022-09-11T04:10:17.846Z,76.30
2022-09-11T04:12:48.552Z,76.40
2022-09-11T04:15:20.803Z,76.30
2022-09-11T04:17:51.864Z,76.30
2022-09-11T04:20:22.611Z,76.30
2022-09-11T04:22:54.884Z,76.30
2022-09-11T04:25:24.879Z,76.40
2022-09-11T04:27:55.190Z,76.40
2022-09-11T04:30:28.570Z,76.30
2022-09-11T04:33:02.500Z,76.40
2022-09-11T04:35:34.498Z,76.50
2022-09-11T04:38:02.803Z,76.40
2022-09-11T04:40:33.234Z,76.50
2022-09-11T04:43:02.135Z,76.50
2022-09-11T04:45:33.655Z,76.60
2022-09-11T04:48:04.207Z,76.70
2022-09-11T04:50:34.690Z,76.70
2022-09-11T04:53:06.761Z,76.80
2022-09-11T04:55:38.304Z,76.90
2022-09-11T04:58:16.459Z,77.00
2022-09-11T05:00:50.419Z,76.90
2022-09-11T05:03:21.166Z,77.00
2022-09-11T05:05:51.690Z,76.90
2022-09-11T05:08:22.544Z,76.80
2022-09-11T05:10:52.745Z,76.80
2022-09-11T05:13:25.343Z,76.80
2022-09-11T05:15:54.636Z,77.00
2022-09-11T05:18:29.567Z,77.00
2022-09-11T05:21:06.462Z,77.00
2022-09-11T05:23:35.662Z,76.90
2022-09-11T05:26:09.001Z,77.10
2022-09-11T05:28:37.116Z,77.20
2022-09-11T05:31:12.420Z,77.20
2022-09-11T05:33:45.071Z,77.20
2022-09-11T05:36:14.844Z,77.10
2022-09-11T05:38:48.969Z,77.20
2022-09-11T05:41:26.114Z,77.30
2022-09-11T05:43:55.035Z,77.20
2022-09-11T05:46:25.657Z,77.10
2022-09-11T05:48:57.808Z,77.10
2022-09-11T05:51:27.908Z,77.10
2022-09-11T05:53:59.692Z,77.10
2022-09-11T05:56:28.226Z,77.00
2022-09-11T05:58:57.927Z,77.00
2022-09-11T06:01:28.867Z,77.00
2022-09-11T06:04:10.789Z,76.90
2022-09-11T06:06:39.059Z,76.80
2022-09-11T06:09:07.695Z,77.00
2022-09-11T06:11:38.177Z,77.00
2022-09-11T06:14:10.383Z,77.00
2022-09-11T06:16:41.074Z,77.00
2022-09-11T06:19:10.638Z,76.80
2022-09-11T06:21:40.868Z,76.70
2022-09-11T06:24:25.500Z,76.70
2022-09-11T06:26:56.487Z,76.80
2022-09-11T06:29:27.480Z,76.70
2022-09-11T06:31:56.744Z,76.70
2022-09-11T06:34:32.218Z,76.30
2022-09-11T06:37:00.533Z,76.10
2022-09-11T06:39:31.431Z,75.60
2022-09-11T06:42:02.505Z,75.20
2022-09-11T06:44:30.564Z,75.00
2022-09-11T06:47:00.116Z,74.80
2022-09-11T06:49:35.737Z,74.60
2022-09-11T06:52:08.971Z,74.00
2022-09-11T06:54:44.194Z,73.70
2022-09-11T06:59:54.742Z,73.00
2022-09-11T07:02:25.154Z,73.00
2022-09-11T07:04:57.116Z,73.10
2022-09-11T07:07:28.955Z,72.90
2022-09-11T07:10:05.573Z,72.80
2022-09-11T07:12:36.110Z,72.80
2022-09-11T07:15:08.604Z,72.80
2022-09-11T07:17:39.568Z,72.60
2022-09-11T07:20:14.723Z,72.50
2022-09-11T07:22:48.100Z,72.40
2022-09-11T07:25:20.478Z,72.10
2022-09-11T07:27:51.885Z,71.80
2022-09-11T07:30:20.490Z,71.50
2022-09-11T07:32:58.156Z,71.30
2022-09-11T07:35:29.162Z,71.10
2022-09-11T07:37:57.555Z,71.20
2022-09-11T07:40:32.760Z,70.80
2022-09-11T07:43:03.788Z,70.60
2022-09-11T07:45:48.063Z,70.10
2022-09-11T07:48:17.724Z,70.10
2022-09-11T07:50:58.861Z,69.80
2022-09-11T07:53:28.531Z,69.50
2022-09-11T07:55:59.750Z,69.60
2022-09-11T07:58:36.106Z,69.30
2022-09-11T08:01:07.105Z,69.20
2022-09-11T08:03:42.631Z,69.00
2022-09-11T08:06:21.403Z,69.00
2022-09-11T08:08:57.098Z,68.80
2022-09-11T08:11:32.288Z,68.60
2022-09-11T08:14:02.927Z,68.60
2022-09-11T08:16:38.439Z,68.40
2022-09-11T08:19:08.477Z,68.50
2022-09-11T08:21:39.278Z,68.10
2022-09-11T08:24:08.646Z,68.30
2022-09-11T08:26:39.680Z,68.40
2022-09-11T08:29:10.294Z,68.30
2022-09-11T08:31:40.986Z,69.10
2022-09-11T08:34:12.908Z,68.50
2022-09-11T08:36:42.688Z,68.50
2022-09-11T08:39:14.627Z,68.50
2022-09-11T08:41:49.671Z,67.90
2022-09-11T08:44:28.147Z,67.40
2022-09-11T08:47:02.863Z,66.60
2022-09-11T08:49:39.341Z,66.20
2022-09-11T08:52:18.354Z,65.70
2022-09-11T08:54:49.615Z,65.60
2022-09-11T08:57:25.599Z,66.00
2022-09-11T09:00:12.214Z,65.70
2022-09-11T09:03:04.639Z,65.10
2022-09-11T09:05:46.563Z,64.20
2022-09-11T09:08:42.518Z,64.50
2022-09-11T09:11:35.386Z,64.40
2022-09-11T09:14:47.375Z,64.70
2022-09-11T09:17:20.810Z,64.10
2022-09-11T09:20:00.900Z,64.30
2022-09-11T09:22:39.698Z,64.10
2022-09-11T09:25:21.281Z,64.10
2022-09-11T09:27:51.964Z,63.80
2022-09-11T09:30:27.818Z,63.00
2022-09-11T09:33:01.779Z,63.00
2022-09-11T09:35:42.656Z,62.90
2022-09-11T09:38:14.488Z,62.70
2022-09-11T09:40:54.967Z,62.70
2022-09-11T09:43:33.937Z,62.50
2022-09-11T09:46:16.796Z,61.70
2022-09-11T09:48:45.135Z,61.00
2022-09-11T09:51:14.999Z,60.90
2022-09-11T09:53:49.031Z,60.80
2022-09-11T09:56:21.130Z,60.50
2022-09-11T09:59:00.983Z,60.30
2022-09-11T10:01:45.916Z,60.00
2022-09-11T10:04:17.841Z,59.60
2022-09-11T10:06:47.492Z,60.00
2022-09-11T10:09:27.270Z,59.80
2022-09-11T10:12:03.514Z,59.80
2022-09-11T10:14:50.929Z,59.70
2022-09-11T10:17:24.666Z,59.40
2022-09-11T10:19:55.789Z,59.40
2022-09-11T10:22:29.278Z,59.20
2022-09-11T10:25:06.476Z,58.90
2022-09-11T10:27:41.400Z,58.50
2022-09-11T10:30:26.561Z,58.50
2022-09-11T10:32:58.046Z,58.50
2022-09-11T10:35:29.983Z,58.20
2022-09-11T10:38:18.231Z,57.90
2022-09-11T10:41:03.333Z,57.50
2022-09-11T10:43:43.142Z,57.80
2022-09-11T10:46:30.099Z,57.60
2022-09-11T10:49:00.998Z,57.40
2022-09-11T10:51:31.314Z,57.60
2022-09-11T10:54:08.515Z,57.70
2022-09-11T10:56:44.151Z,57.30
2022-09-11T10:59:20.621Z,57.20
2022-09-11T11:01:48.921Z,57.50
2022-09-11T11:04:17.110Z,57.40
2022-09-11T11:07:00.865Z,57.20
2022-09-11T11:09:44.055Z,57.10
2022-09-11T11:12:33.139Z,56.30
2022-09-11T11:15:17.533Z,55.60
2022-09-11T11:17:55.949Z,55.20
2022-09-11T11:20:34.225Z,54.80
2022-09-11T11:23:18.966Z,54.30
2022-09-11T11:25:54.239Z,53.50
2022-09-11T11:28:41.638Z,53.50
2022-09-11T11:31:23.674Z,53.70
2022-09-11T11:34:16.944Z,53.60
2022-09-11T11:36:51.205Z,52.70
2022-09-11T11:39:26.576Z,53.10
2022-09-11T11:42:08.701Z,52.70
2022-09-11T11:44:42.108Z,52.30
2022-09-11T11:47:12.849Z,52.10
2022-09-11T11:49:53.423Z,52.50
2022-09-11T11:52:33.907Z,52.00
2022-09-11T11:55:12.905Z,52.30
2022-09-11T11:57:45.166Z,52.20
2022-09-11T12:00:16.336Z,52.00
2022-09-11T12:02:51.058Z,52.20
2022-09-11T12:05:24.242Z,51.90
2022-09-11T12:07:52.964Z,51.60
2022-09-11T12:10:28.057Z,51.50
2022-09-11T12:13:00.711Z,51.10
2022-09-11T12:15:32.329Z,50.90
2022-09-11T12:18:04.895Z,50.40
2022-09-11T12:20:40.551Z,50.60
2022-09-11T12:23:36.580Z,49.70
2022-09-11T12:26:22.222Z,49.90
2022-09-11T12:28:51.235Z,49.50
2022-09-11T12:31:19.680Z,48.60
2022-09-11T12:33:54.671Z,49.50
2022-09-11T12:36:45.076Z,49.00
2022-09-11T12:39:24.899Z,48.80
2022-09-11T12:41:53.612Z,48.50
2022-09-11T12:44:34.033Z,48.30
2022-09-11T12:47:21.077Z,48.10
2022-09-11T12:49:57.267Z,48.10
2022-09-11T12:52:37.708Z,48.40
2022-09-11T12:55:24.026Z,47.70
2022-09-11T12:57:52.492Z,47.60
2022-09-11T13:00:24.850Z,47.40
2022-09-11T13:02:56.932Z,48.40
2022-09-11T13:05:30.182Z,48.70
2022-09-11T13:08:00.851Z,48.10
2022-09-11T13:10:35.193Z,47.90
2022-09-11T13:13:04.793Z,48.10
2022-09-11T13:15:41.767Z,48.10
2022-09-11T13:18:33.062Z,47.90
2022-09-11T13:21:13.421Z,47.80
2022-09-11T13:23:42.561Z,47.40
2022-09-11T13:26:17.016Z,47.90
2022-09-11T13:28:48.017Z,48.40
2022-09-11T13:31:21.363Z,48.00
2022-09-11T13:33:51.355Z,47.60
2022-09-11T13:36:24.685Z,47.40
2022-09-11T13:38:56.121Z,47.50
2022-09-11T13:41:29.920Z,47.20
2022-09-11T13:44:00.324Z,46.70
2022-09-11T13:46:30.527Z,46.50
2022-09-11T13:49:15.156Z,46.50
2022-09-11T13:51:46.393Z,46.70
2022-09-11T13:54:16.833Z,45.70
2022-09-11T13:56:48.135Z,45.50
2022-09-11T13:59:40.245Z,45.30
2022-09-11T14:02:37.263Z,45.30
2022-09-11T14:05:13.864Z,45.40
2022-09-11T14:07:48.380Z,45.30
2022-09-11T14:10:35.532Z,45.10
2022-09-11T14:13:16.893Z,44.60
2022-09-11T14:15:57.542Z,44.30
2022-09-11T14:18:36.212Z,43.70
2022-09-11T14:21:20.562Z,43.30
2022-09-11T14:23:54.151Z,43.00
2022-09-11T14:26:24.620Z,42.90
2022-09-11T14:29:07.016Z,43.00
2022-09-11T14:31:38.095Z,42.10
2022-09-11T14:34:22.010Z,42.20
2022-09-11T14:37:04.460Z,41.80
2022-09-11T14:39:37.574Z,41.30
2022-09-11T14:42:09.252Z,41.10
2022-09-11T14:44:39.479Z,41.00
2022-09-11T14:47:24.522Z,41.10
2022-09-11T14:49:55.779Z,40.80
2022-09-11T14:52:29.420Z,39.80
2022-09-11T14:55:01.565Z,39.90
2022-09-11T14:57:35.387Z,39.90
2022-09-11T15:00:04.755Z,39.20
2022-09-11T15:02:35.537Z,39.10
2022-09-11T15:05:07.801Z,39.40
2022-09-11T15:07:38.499Z,39.30
2022-09-11T15:10:08.896Z,39.00
2022-09-11T15:12:36.979Z,39.50
2022-09-11T15:15:05.681Z,39.30
2022-09-11T15:17:36.342Z,38.90
2022-09-11T15:20:07.305Z,39.10
2022-09-11T15:22:35.475Z,39.10
2022-09-11T15:25:03.811Z,38.90
2022-09-11T15:27:33.342Z,38.90
2022-09-11T15:30:01.697Z,38.80
2022-09-11T15:32:31.346Z,38.30
2022-09-11T15:34:59.550Z,38.20
2022-09-11T15:37:27.643Z,37.90
2022-09-11T15:39:55.882Z,37.90
2022-09-11T15:42:23.999Z,37.70
2022-09-11T15:44:53.459Z,37.60
2022-09-11T15:47:22.193Z,37.60
2022-09-11T15:49:50.308Z,37.40
2022-09-11T15:52:19.478Z,37.60
2022-09-11T15:54:48.869Z,37.20
2022-09-11T15:57:17.404Z,37.60
2022-09-11T15:59:45.572Z,35.90
2022-09-11T16:02:15.228Z,33.30
2022-09-11T16:04:43.988Z,30.70
2022-09-11T16:07:12.145Z,29.90
2022-09-11T16:09:40.455Z,28.60
2022-09-11T16:12:08.989Z,27.90
2022-09-11T16:14:39.032Z,30.70
2022-09-11T16:17:08.528Z,33.30
2022-09-11T16:19:38.801Z,35.10
2022-09-11T16:22:07.865Z,36.50
2022-09-11T16:24:38.118Z,37.50
2022-09-11T16:27:08.266Z,38.30
2022-09-11T16:29:59.333Z,38.80
2022-09-11T16:32:31.599Z,39.50
2022-09-11T16:35:01.164Z,40.10
2022-09-11T16:37:32.788Z,40.30
2022-09-11T16:40:02.002Z,40.80
2022-09-11T16:42:30.498Z,41.70
2022-09-11T16:44:58.569Z,43.10
2022-09-11T16:47:26.853Z,44.10
2022-09-11T16:50:10.342Z,44.80
2022-09-11T16:52:40.318Z,45.40
2022-09-11T16:55:10.399Z,45.80
2022-09-11T16:57:38.658Z,46.30
2022-09-11T17:00:08.691Z,46.70
2022-09-11T17:02:37.529Z,47.20
2022-09-11T17:05:06.872Z,47.80
2022-09-11T17:07:35.487Z,48.40
2022-09-11T17:10:05.441Z,48.90
2022-09-11T17:12:33.541Z,49.80
2022-09-11T17:15:02.041Z,50.30
2022-09-11T17:17:31.317Z,50.60
2022-09-11T17:20:00.354Z,51.00
2022-09-11T17:22:29.684Z,51.50
2022-09-11T17:24:57.792Z,51.90
2022-09-11T17:27:27.470Z,52.40
2022-09-11T17:29:55.595Z,52.90
2022-09-11T17:32:28.392Z,53.30
2022-09-11T17:34:58.109Z,53.80
2022-09-11T17:37:27.044Z,54.20
2022-09-11T17:39:55.622Z,54.60
2022-09-11T17:42:23.888Z,54.90
2022-09-11T17:44:53.334Z,55.20
2022-09-11T17:47:21.466Z,55.50
2022-09-11T17:49:53.198Z,55.90
2022-09-11T17:52:24.434Z,56.40
2022-09-11T17:57:34.889Z,57.10
2022-09-11T18:00:07.991Z,57.40
2022-09-11T18:02:38.533Z,57.80
2022-09-11T18:05:08.774Z,58.20
2022-09-11T18:07:40.153Z,58.50
2022-09-11T18:10:10.569Z,58.80
2022-09-11T18:12:38.703Z,59.10
2022-09-11T18:15:26.379Z,59.40
2022-09-11T18:17:54.459Z,59.60
2022-09-11T18:20:23.827Z,59.80
2022-09-11T18:22:51.930Z,59.90
2022-09-11T18:25:23.232Z,60.00
2022-09-11T18:27:51.335Z,60.30
2022-09-11T18:30:21.023Z,60.50
2022-09-11T18:32:50.042Z,60.80
2022-09-11T18:35:18.859Z,61.10
2022-09-11T18:37:46.989Z,61.30
2022-09-11T18:40:15.267Z,61.40
2022-09-11T18:42:43.645Z,61.50
2022-09-11T18:45:12.375Z,61.70
2022-09-11T18:47:43.506Z,61.70
2022-09-11T18:50:11.824Z,61.90
2022-09-11T18:52:41.274Z,62.00
2022-09-11T18:55:10.287Z,62.00
2022-09-11T18:57:41.767Z,61.90
2022-09-11T19:00:14.668Z,61.90
2022-09-11T19:02:44.581Z,61.90
2022-09-11T19:05:13.621Z,62.00
2022-09-11T19:07:41.823Z,62.10
2022-09-11T19:10:11.340Z,62.30
2022-09-11T19:12:40.255Z,62.50
2022-09-11T19:15:09.507Z,62.70
2022-09-11T19:17:38.359Z,62.90
2022-09-11T19:20:11.153Z,63.10
2022-09-11T19:22:39.608Z,63.30
2022-09-11T19:25:10.022Z,63.40
2022-09-11T19:27:38.225Z,63.40
2022-09-11T19:30:08.843Z,63.50
2022-09-11T19:32:37.640Z,63.60
2022-09-11T19:35:08.130Z,63.60
2022-09-11T19:37:36.260Z,63.80
2022-09-11T19:40:06.878Z,64.00
2022-09-11T19:42:35.009Z,64.30
2022-09-11T19:45:03.156Z,64.50
2022-09-11T19:47:31.245Z,64.70
2022-09-11T19:50:00.314Z,65.00
2022-09-11T19:52:33.018Z,65.10
2022-09-11T19:55:01.414Z,65.20
2022-09-11T19:57:29.685Z,65.40
2022-09-11T19:59:57.802Z,65.50
2022-09-11T20:02:26.082Z,65.60
2022-09-11T20:04:54.189Z,65.70
2022-09-11T20:07:22.286Z,65.80
2022-09-11T20:09:51.744Z,65.90
2022-09-11T20:12:19.832Z,65.90
2022-09-11T20:14:47.899Z,65.80
2022-09-11T20:17:15.973Z,65.90
2022-09-11T20:19:44.994Z,66.00
2022-09-11T20:22:13.173Z,66.00
2022-09-11T20:24:41.246Z,66.40
2022-09-11T20:27:10.700Z,66.60
2022-09-11T20:29:40.065Z,66.70
2022-09-11T20:32:08.270Z,66.80
2022-09-11T20:34:36.381Z,67.10
2022-09-11T20:37:08.095Z,67.30
2022-09-11T20:39:38.687Z,67.50
2022-09-11T20:42:07.112Z,67.70
2022-09-11T20:44:37.260Z,67.80
2022-09-11T20:47:05.774Z,67.90
2022-09-11T20:49:33.917Z,68.10
2022-09-11T20:52:01.972Z,68.30
2022-09-11T20:54:30.455Z,68.40
2022-09-11T20:57:00.485Z,68.50
2022-09-11T20:59:29.082Z,68.80
2022-09-11T21:02:00.462Z,68.90
2022-09-11T21:04:29.015Z,68.90
2022-09-11T21:06:57.087Z,69.00
2022-09-11T21:09:25.442Z,68.90
2022-09-11T21:11:53.607Z,69.00
2022-09-11T21:14:21.770Z,69.10
2022-09-11T21:16:50.034Z,69.10
2022-09-11T21:19:19.523Z,69.10
2022-09-11T21:21:47.608Z,69.10
2022-09-11T21:24:16.049Z,69.20
2022-09-11T21:26:44.296Z,69.30
2022-09-11T21:29:14.441Z,69.40
2022-09-11T21:31:42.597Z,69.50
2022-09-11T21:34:10.878Z,69.50
2022-09-11T21:36:40.680Z,69.60
2022-09-11T21:39:08.785Z,69.70
2022-09-11T21:41:36.952Z,69.80
2022-09-11T21:44:05.351Z,69.90
2022-09-11T21:46:33.609Z,70.10
2022-09-11T21:49:02.290Z,70.20
2022-09-11T21:51:31.678Z,70.30
2022-09-11T21:54:01.985Z,70.40
2022-09-11T21:56:32.313Z,70.50
2022-09-11T21:59:01.153Z,70.70
2022-09-11T22:01:30.140Z,70.80
2022-09-11T22:04:01.129Z,70.80
2022-09-11T22:06:30.030Z,70.90
2022-09-11T22:08:58.499Z,70.90
2022-09-11T22:11:28.274Z,71.10
2022-09-11T22:13:56.680Z,71.30
2022-09-11T22:16:24.838Z,71.40
2022-09-11T22:18:55.316Z,71.50
2022-09-11T22:21:24.900Z,71.60
2022-09-11T22:23:53.019Z,71.80
2022-09-11T22:26:23.880Z,71.90
2022-09-11T22:28:53.640Z,72.00
2022-09-11T22:31:24.146Z,72.00
2022-09-11T22:33:52.805Z,72.10
2022-09-11T22:36:23.821Z,72.20
2022-09-11T22:38:52.235Z,72.30
2022-09-11T22:41:20.816Z,72.50
2022-09-11T22:43:50.107Z,72.50
2022-09-11T22:46:21.273Z,72.50
2022-09-11T22:48:49.729Z,72.70
2022-09-11T22:51:17.973Z,72.80
2022-09-11T22:53:46.878Z,72.80
2022-09-11T22:56:15.283Z,73.00
2022-09-11T22:58:43.633Z,73.00
2022-09-11T23:01:14.231Z,73.10
2022-09-11T23:03:46.541Z,73.10
2022-09-11T23:06:31.878Z,73.30
2022-09-11T23:09:01.848Z,73.40
2022-09-11T23:11:30.163Z,73.50
2022-09-11T23:13:58.799Z,73.70
2022-09-11T23:16:29.550Z,73.80
2022-09-11T23:19:00.505Z,73.80
2022-09-11T23:21:29.649Z,73.70
2022-09-11T23:23:58.774Z,74.00
2022-09-11T23:26:28.828Z,74.10
2022-09-11T23:28:57.254Z,74.10
2022-09-11T23:31:27.914Z,74.10
2022-09-11T23:33:59.136Z,74.10
2022-09-11T23:36:28.579Z,74.10
2022-09-11T23:38:57.116Z,74.10
2022-09-11T23:41:25.617Z,74.20
2022-09-11T23:43:54.049Z,74.20
2022-09-11T23:46:22.232Z,74.20
2022-09-11T23:48:50.973Z,74.30
2022-09-11T23:51:21.286Z,74.30
2022-09-11T23:53:51.850Z,74.20
2022-09-11T23:56:20.977Z,74.30
2022-09-11T23:58:49.225Z,74.30
